Time;durP1;ratioP1;P1;durP2;ratioP2;P2;SDS_P1;SDS_P2;PMS_P1;PMS_P2;Temp;Humidity;BMP_temperature;BMP_pressure;BME280_temperature;BME280_humidity;BME280_pressure;Samples;Min_cycle;Max_cycle;Signal;HPM_P1;HPM_P2
2022/01/04 00:00:20;;;;;;;4.70;4.50;;;;;;;7.43;100.00;99875.81;4377832;32;20084;-68
2022/01/04 00:02:46;;;;;;;4.00;3.80;;;;;;;7.39;100.00;99868.12;4382277;32;20456;-68
2022/01/04 00:05:11;;;;;;;3.70;3.60;;;;;;;7.38;100.00;99870.84;4378826;32;20084;-68
2022/01/04 00:07:37;;;;;;;4.00;3.80;;;;;;;7.36;100.00;99868.31;4377701;32;20284;-68
2022/01/04 00:10:02;;;;;;;4.00;3.80;;;;;;;7.29;100.00;99853.88;4383286;32;20127;-68
2022/01/04 00:15:12;;;;;;;3.62;3.53;;;;;;;7.33;100.00;99857.16;4381075;32;20087;-68
2022/01/04 00:17:37;;;;;;;4.03;3.83;;;;;;;7.31;100.00;99845.97;4364826;32;20326;-68
2022/01/04 00:20:04;;;;;;;3.78;3.67;;;;;;;7.25;100.00;99848.91;4382980;32;20103;-68
2022/01/04 00:22:29;;;;;;;5.20;5.00;;;;;;;7.20;100.00;99836.09;4379788;32;20085;-68
2022/01/04 00:24:54;;;;;;;3.70;3.60;;;;;;;7.14;100.00;99824.22;4379703;32;20061;-68
2022/01/04 00:27:20;;;;;;;4.50;4.30;;;;;;;7.21;100.00;99842.16;4379006;32;20097;-68
2022/01/04 00:29:45;;;;;;;4.50;4.30;;;;;;;6.02;100.00;99624.00;4362778;32;20116;-68
2022/01/04 00:32:11;;;;;;;3.72;3.62;;;;;;;7.27;100.00;99818.34;4382854;32;20137;-68
2022/01/04 00:34:36;;;;;;;4.10;3.90;;;;;;;7.20;100.00;99812.63;4358722;32;20107;-68
2022/01/04 00:37:01;;;;;;;3.70;3.60;;;;;;;7.18;100.00;99811.84;4382833;32;20367;-69
2022/01/04 00:39:27;;;;;;;4.85;4.65;;;;;;;7.15;100.00;99810.22;4377554;32;20180;-69
2022/01/04 00:41:52;;;;;;;3.78;3.67;;;;;;;7.16;100.00;99801.50;4379710;32;20107;-69
2022/01/04 00:44:17;;;;;;;3.72;3.62;;;;;;;7.14;100.00;99797.28;4392901;32;20135;-69
2022/01/04 00:46:43;;;;;;;3.80;3.70;;;;;;;7.16;100.00;99793.66;4363852;32;20066;-68
2022/01/04 00:49:11;;;;;;;3.83;3.70;;;;;;;6.57;100.00;99699.38;4391936;32;20076;-68
2022/01/04 00:51:48;;;;;;;4.70;4.50;;;;;;;7.13;100.00;99785.16;4376505;32;20313;-68
2022/01/04 00:54:13;;;;;;;3.83;3.72;;;;;;;7.02;100.00;99775.28;4367850;32;20479;-69
2022/01/04 00:56:39;;;;;;;4.10;3.90;;;;;;;7.06;100.00;99779.41;4380841;32;20195;-69
2022/01/04 00:59:05;;;;;;;3.70;3.60;;;;;;;7.04;100.00;99770.81;4377698;32;20572;-68
2022/01/04 01:01:30;;;;;;;3.65;3.55;;;;;;;7.04;100.00;99763.00;4382581;32;20579;-69
2022/01/04 01:03:55;;;;;;;3.62;3.53;;;;;;;6.93;100.00;99742.69;4378796;32;20461;-68
2022/01/04 01:06:21;;;;;;;4.97;4.78;;;;;;;7.05;100.00;99748.19;4376953;32;20125;-68
2022/01/04 01:08:46;;;;;;;4.00;3.80;;;;;;;7.04;100.00;99747.34;4359931;32;20697;-69
2022/01/04 01:11:12;;;;;;;3.67;3.58;;;;;;;6.80;100.00;99715.56;4374100;32;20069;-70
2022/01/04 01:13:37;;;;;;;5.15;4.85;;;;;;;6.98;100.00;99739.84;4359691;32;21083;-68
2022/01/04 01:16:03;;;;;;;3.60;3.50;;;;;;;6.97;100.00;99736.38;4361700;32;20096;-68
2022/01/04 01:18:28;;;;;;;5.18;4.97;;;;;;;6.98;100.00;99729.41;4381277;32;20131;-67
2022/01/04 01:20:54;;;;;;;3.95;3.78;;;;;;;6.87;100.00;99716.09;4378607;32;20061;-68
2022/01/04 01:23:19;;;;;;;4.82;4.62;;;;;;;6.96;100.00;99726.03;4390698;32;20100;-68
2022/01/04 01:25:45;;;;;;;3.78;3.67;;;;;;;6.97;100.00;99725.09;4378574;32;20069;-68
2022/01/04 01:28:10;;;;;;;3.70;3.60;;;;;;;6.96;100.00;99723.44;4381950;32;20122;-68
2022/01/04 01:30:39;;;;;;;4.60;4.40;;;;;;;6.94;100.00;99714.84;4378399;32;20077;-67
2022/01/04 01:33:04;;;;;;;3.92;3.75;;;;;;;6.96;100.00;99715.62;4376468;32;20204;-68
2022/01/04 01:35:30;;;;;;;4.90;4.70;;;;;;;6.94;100.00;99714.84;4379056;32;20091;-68
2022/01/04 01:37:57;;;;;;;3.87;3.78;;;;;;;6.93;100.00;99720.97;4365571;32;20061;-68
2022/01/04 01:40:22;;;;;;;4.87;4.68;;;;;;;6.93;100.00;99720.97;4378119;32;20184;-66
2022/01/04 01:42:48;;;;;;;3.75;3.65;;;;;;;6.92;100.00;99716.69;4382203;32;20069;-68
2022/01/04 01:45:16;;;;;;;3.75;3.65;;;;;;;6.91;100.00;99712.37;4379181;32;20079;-68
2022/01/04 01:47:42;;;;;;;3.70;3.60;;;;;;;6.92;100.00;99711.47;4380032;32;20084;-69
2022/01/04 01:50:09;;;;;;;4.25;4.05;;;;;;;6.35;100.00;99676.19;4361721;32;20061;-68
2022/01/04 01:52:34;;;;;;;5.07;4.87;;;;;;;6.88;100.00;99707.34;4380525;32;20073;-68
2022/01/04 01:55:00;;;;;;;3.60;3.50;;;;;;;6.90;100.00;99705.50;4378904;32;20084;-69
2022/01/04 01:57:25;;;;;;;5.12;4.93;;;;;;;6.88;100.00;99702.97;4378937;32;20064;-69
2022/01/04 01:59:50;;;;;;;3.80;3.70;;;;;;;6.90;100.00;99690.69;4379552;32;20579;-71
2022/01/04 02:02:16;;;;;;;4.00;3.80;;;;;;;6.91;100.00;99688.91;4380081;32;20072;-70
2022/01/04 02:04:41;;;;;;;3.80;3.70;;;;;;;6.90;100.00;99692.47;4380071;32;20065;-69
2022/01/04 02:07:07;;;;;;;3.70;3.60;;;;;;;6.85;100.00;99692.69;4361316;32;20433;-69
2022/01/04 02:09:34;;;;;;;5.50;5.30;;;;;;;6.85;100.00;99687.47;4377235;32;20128;-69
2022/01/04 02:12:00;;;;;;;4.00;3.80;;;;;;;6.86;100.00;99683.13;4380762;32;20132;-69
2022/01/04 02:14:26;;;;;;;5.15;4.95;;;;;;;6.84;100.00;99674.53;4372752;32;20113;-67
2022/01/04 02:16:51;;;;;;;3.78;3.67;;;;;;;6.83;100.00;99670.22;4366449;32;20869;-69
2022/01/04 02:19:17;;;;;;;3.78;3.65;;;;;;;6.81;100.00;99678.12;4378851;32;20097;-69
2022/01/04 02:21:42;;;;;;;3.80;3.70;;;;;;;6.81;100.00;99672.09;4382318;32;20100;-69
2022/01/04 02:24:08;;;;;;;3.50;3.40;;;;;;;6.82;100.00;99664.19;4391419;32;20072;-70
2022/01/04 02:26:33;;;;;;;5.03;4.82;;;;;;;6.81;100.00;99664.25;4377231;32;20115;-67
2022/01/04 02:28:59;;;;;;;3.70;3.60;;;;;;;6.76;100.00;99667.94;4376856;32;20093;-67
2022/01/04 02:31:24;;;;;;;5.45;5.25;;;;;;;6.74;100.00;99664.59;4389720;32;20681;-68
2022/01/04 02:33:50;;;;;;;3.80;3.70;;;;;;;6.72;100.00;99656.00;4380651;32;20085;-68
2022/01/04 02:36:15;;;;;;;3.60;3.50;;;;;;;6.75;100.00;99660.19;4388121;32;20592;-68
2022/01/04 02:38:41;;;;;;;3.60;3.50;;;;;;;6.75;100.00;99657.59;4380965;32;20079;-69
2022/01/04 02:41:06;;;;;;;3.70;3.60;;;;;;;6.75;100.00;99650.59;4377670;32;20084;-68
2022/01/04 02:43:31;;;;;;;5.35;5.15;;;;;;;6.72;100.00;99644.75;4377252;32;20080;-68
2022/01/04 02:45:57;;;;;;;3.70;3.60;;;;;;;6.71;100.00;99643.87;4381206;32;20166;-68
2022/01/04 02:48:22;;;;;;;5.00;4.80;;;;;;;6.73;100.00;99641.19;4374753;32;20065;-68
2022/01/04 02:50:48;;;;;;;3.67;3.58;;;;;;;6.73;100.00;99628.16;4378531;32;20069;-67
2022/01/04 02:53:13;;;;;;;3.60;3.50;;;;;;;6.35;100.00;99576.28;4378896;32;20103;-68
2022/01/04 02:55:39;;;;;;;3.70;3.60;;;;;;;6.72;100.00;99645.56;4380151;32;20068;-67
2022/01/04 02:58:04;;;;;;;3.50;3.40;;;;;;;6.72;100.00;99642.97;4378598;32;20057;-67
2022/01/04 03:00:30;;;;;;;5.20;5.00;;;;;;;6.67;100.00;99642.34;4375736;32;20092;-68
2022/01/04 03:02:55;;;;;;;3.85;3.72;;;;;;;6.68;100.00;99632.78;4378993;32;20081;-66
2022/01/04 03:05:20;;;;;;;4.68;4.47;;;;;;;6.69;100.00;99634.47;4376280;32;20083;-68
2022/01/04 03:07:46;;;;;;;3.58;3.47;;;;;;;6.70;100.00;99623.94;4378311;32;20211;-68
2022/01/04 03:10:11;;;;;;;3.50;3.40;;;;;;;6.67;100.00;99626.72;4386406;32;20575;-68
2022/01/04 03:12:39;;;;;;;3.78;3.67;;;;;;;6.59;100.00;99623.66;4378715;32;20073;-67
2022/01/04 03:15:05;;;;;;;3.55;3.45;;;;;;;6.61;100.00;99619.22;4389408;32;20096;-70
2022/01/04 03:17:30;;;;;;;5.00;4.80;;;;;;;6.61;100.00;99621.00;4380692;32;20081;-68
2022/01/04 03:19:56;;;;;;;3.80;3.70;;;;;;;6.57;100.00;99618.56;4377133;32;20438;-67
2022/01/04 03:22:21;;;;;;;5.15;4.95;;;;;;;6.57;100.00;99605.53;4377662;32;20072;-66
2022/01/04 03:24:46;;;;;;;3.60;3.50;;;;;;;6.62;100.00;99594.84;4380604;32;20079;-67
2022/01/04 03:27:13;;;;;;;3.60;3.50;;;;;;;6.61;100.00;99587.94;4376798;32;20061;-68
2022/01/04 03:29:38;;;;;;;4.18;3.97;;;;;;;6.62;100.00;99583.59;4378913;32;20101;-68
2022/01/04 03:32:04;;;;;;;3.60;3.50;;;;;;;6.26;100.00;99522.91;4379103;32;20069;-69
2022/01/04 03:34:29;;;;;;;4.55;4.35;;;;;;;6.58;100.00;99562.06;4380252;32;20088;-69
2022/01/04 03:36:54;;;;;;;3.70;3.60;;;;;;;6.58;100.00;99556.84;4380594;32;20074;-68
2022/01/04 03:39:20;;;;;;;4.62;4.43;;;;;;;6.63;100.00;99541.78;4379660;32;20565;-69
2022/01/04 03:41:46;;;;;;;4.30;4.10;;;;;;;6.61;100.00;99548.00;4379798;32;20525;-67
2022/01/04 03:44:19;;;;;;;3.37;3.28;;;;;;;6.61;100.00;99550.59;4391449;32;20398;-67
2022/01/04 03:46:49;;;;;;;3.75;3.65;;;;;;;6.60;100.00;99534.13;4383130;32;20138;-68
2022/01/04 03:49:15;;;;;;;3.50;3.40;;;;;;;6.56;100.00;99520.41;4381983;32;20650;-69
2022/01/04 03:51:40;;;;;;;3.70;3.60;;;;;;;6.62;100.00;99519.25;4385056;32;20160;-68
2022/01/04 03:54:06;;;;;;;3.60;3.50;;;;;;;6.58;100.00;99508.13;4385675;32;20622;-68
2022/01/04 03:56:31;;;;;;;4.70;4.50;;;;;;;6.22;100.00;99445.84;4384917;32;20088;-68
2022/01/04 03:58:56;;;;;;;3.67;3.58;;;;;;;6.40;100.00;99501.34;4377665;32;20854;-68
2022/01/04 04:01:22;;;;;;;4.93;4.72;;;;;;;6.58;100.00;99494.28;4383053;32;20084;-69
2022/01/04 04:03:47;;;;;;;3.80;3.70;;;;;;;6.57;100.00;99498.66;4380886;32;20502;-67
2022/01/04 04:06:13;;;;;;;3.55;3.45;;;;;;;6.55;100.00;99497.03;4384803;32;20077;-68
2022/01/04 04:08:39;;;;;;;3.55;3.45;;;;;;;6.55;100.00;99490.03;4383493;32;20093;-69
2022/01/04 04:11:04;;;;;;;3.60;3.50;;;;;;;6.53;100.00;99491.91;4382583;32;20120;-69
2022/01/04 04:13:30;;;;;;;3.83;3.72;;;;;;;6.50;100.00;99491.25;4387798;32;20080;-67
2022/01/04 04:15:55;;;;;;;3.70;3.60;;;;;;;6.51;100.00;99485.09;4385217;32;20085;-69
2022/01/04 04:18:21;;;;;;;3.80;3.70;;;;;;;6.12;100.00;99418.62;4384670;32;20072;-69
2022/01/04 04:20:46;;;;;;;3.70;3.60;;;;;;;6.37;100.00;99452.84;4383060;32;20080;-68
2022/01/04 04:23:11;;;;;;;3.50;3.40;;;;;;;6.48;100.00;99470.47;4386786;32;20087;-69
2022/01/04 04:25:37;;;;;;;4.18;3.97;;;;;;;6.48;100.00;99472.25;4379742;32;20484;-68
2022/01/04 04:28:02;;;;;;;3.60;3.50;;;;;;;6.49;100.00;99456.50;4383315;32;20083;-69
2022/01/04 04:30:28;;;;;;;5.25;5.05;;;;;;;6.49;100.00;99455.69;4379030;32;20200;-68
2022/01/04 04:32:53;;;;;;;3.70;3.60;;;;;;;6.50;100.00;99452.16;4378295;32;20186;-69
2022/01/04 04:35:19;;;;;;;3.83;3.67;;;;;;;6.51;100.00;99433.81;4379977;32;20069;-69
2022/01/04 04:37:44;;;;;;;3.60;3.50;;;;;;;6.51;100.00;99436.41;4369225;32;20657;-67
2022/01/04 04:40:10;;;;;;;3.42;3.33;;;;;;;6.53;100.00;99429.34;4382707;32;20069;-68
2022/01/04 04:42:35;;;;;;;4.70;4.50;;;;;;;6.44;100.00;99411.63;4379973;32;20061;-67
2022/01/04 04:45:00;;;;;;;3.60;3.50;;;;;;;6.52;100.00;99421.63;4384726;32;20284;-68
2022/01/04 04:47:26;;;;;;;3.70;3.60;;;;;;;6.53;100.00;99423.31;4398343;32;20084;-69
2022/01/04 04:49:52;;;;;;;3.53;3.42;;;;;;;6.52;100.00;99404.22;4389694;32;20144;-70
2022/01/04 04:52:18;;;;;;;3.70;3.60;;;;;;;6.12;100.00;99340.47;4398625;32;20572;-69
2022/01/04 04:54:43;;;;;;;3.67;3.58;;;;;;;6.51;100.00;99397.31;4408026;32;20084;-67
2022/01/04 04:57:08;;;;;;;3.60;3.50;;;;;;;6.39;100.00;99377.16;4379717;32;20473;-70
2022/01/04 04:59:34;;;;;;;3.70;3.60;;;;;;;6.49;100.00;99408.75;4379431;32;20457;-69
2022/01/04 05:01:59;;;;;;;3.70;3.60;;;;;;;6.48;100.00;99396.66;4393920;32;20073;-70
2022/01/04 05:04:25;;;;;;;5.20;5.00;;;;;;;6.36;100.00;99383.37;4391726;32;20088;-66
2022/01/04 05:06:50;;;;;;;3.60;3.50;;;;;;;6.48;100.00;99402.72;4386600;32;20093;-69
2022/01/04 05:09:16;;;;;;;3.42;3.33;;;;;;;6.50;100.00;99397.44;4385707;32;20085;-68
2022/01/04 05:11:41;;;;;;;3.87;3.75;;;;;;;6.50;100.00;99400.88;4379928;32;20099;-68
2022/01/04 05:14:07;;;;;;;3.80;3.70;;;;;;;6.52;100.00;99396.41;4379867;32;20061;-67
2022/01/04 05:16:32;;;;;;;4.80;4.60;;;;;;;6.51;100.00;99402.53;4381831;32;20635;-68
2022/01/04 05:18:57;;;;;;;3.70;3.60;;;;;;;6.43;100.00;99385.66;4376668;32;20316;-68
2022/01/04 05:21:23;;;;;;;5.03;4.82;;;;;;;6.48;100.00;99387.09;4380982;32;20076;-67
2022/01/04 05:23:50;;;;;;;3.50;3.40;;;;;;;6.47;100.00;99388.00;4379030;32;20066;-67
2022/01/04 05:26:16;;;;;;;3.58;3.47;;;;;;;6.49;100.00;99387.91;4385216;32;20910;-69
2022/01/04 05:28:45;;;;;;;3.70;3.60;;;;;;;6.46;100.00;99395.91;4379384;32;20069;-68
2022/01/04 05:31:10;;;;;;;3.70;3.60;;;;;;;6.44;100.00;99384.75;4366073;32;20068;-68
2022/01/04 05:33:36;;;;;;;4.00;3.80;;;;;;;6.44;100.00;99382.13;4378039;32;20633;-68
2022/01/04 05:36:01;;;;;;;3.67;3.58;;;;;;;6.36;100.00;99370.38;4368592;32;20101;-68
2022/01/04 05:38:27;;;;;;;4.87;4.68;;;;;;;6.45;100.00;99381.19;4377072;32;20601;-68
2022/01/04 05:40:52;;;;;;;4.10;3.90;;;;;;;6.39;100.00;99383.22;4366176;32;20088;-69
2022/01/04 05:43:17;;;;;;;3.92;3.78;;;;;;;6.39;100.00;99385.84;4387927;32;20062;-67
2022/01/04 05:45:43;;;;;;;3.60;3.50;;;;;;;6.33;100.00;99393.13;4369319;32;20674;-67
2022/01/04 05:48:08;;;;;;;3.70;3.60;;;;;;;6.32;100.00;99387.09;4393482;32;20084;-67
2022/01/04 05:50:34;;;;;;;5.10;4.90;;;;;;;6.32;100.00;99381.06;4373982;32;20069;-68
2022/01/04 05:53:00;;;;;;;4.75;4.30;;;;;;;6.30;100.00;99381.13;4370047;32;20147;-67
2022/01/04 05:55:25;;;;;;;3.70;3.60;;;;;;;6.28;100.00;99376.94;4373540;32;20065;-68
2022/01/04 05:57:50;;;;;;;3.72;3.62;;;;;;;6.29;100.00;99374.22;4375091;32;20069;-68
2022/01/04 06:00:19;;;;;;;3.60;3.50;;;;;;;6.34;100.00;99379.19;4377211;32;20065;-69
2022/01/04 06:02:44;;;;;;;3.62;3.53;;;;;;;6.35;100.00;99381.72;4378803;32;20065;-68
2022/01/04 06:05:10;;;;;;;3.97;3.78;;;;;;;6.30;100.00;99369.88;4381176;32;20103;-69
2022/01/04 06:07:36;;;;;;;5.37;5.12;;;;;;;6.34;100.00;99369.63;4376112;32;20066;-68
2022/01/04 06:10:02;;;;;;;3.47;3.37;;;;;;;5.27;100.00;99177.66;4373480;32;20106;-68
2022/01/04 06:14:57;;;;;;;3.40;3.30;;;;;;;6.34;100.00;99356.59;4371475;32;20093;-68
2022/01/04 06:17:50;;;;;;;4.82;4.62;;;;;;;6.35;100.00;99355.66;4378042;32;20298;-68
2022/01/04 06:20:17;;;;;;;3.58;3.47;;;;;;;6.36;100.00;99346.91;4394241;32;20076;-70
2022/01/04 06:22:42;;;;;;;3.58;3.47;;;;;;;6.39;100.00;99338.94;4380365;32;20083;-68
2022/01/04 06:25:10;;;;;;;3.40;3.30;;;;;;;6.31;100.00;99335.91;4393218;32;20085;-68
2022/01/04 06:27:36;;;;;;;4.45;4.25;;;;;;;6.38;100.00;99354.66;4388204;32;20604;-67
2022/01/04 06:30:01;;;;;;;3.45;3.35;;;;;;;6.22;100.00;99318.19;4380895;32;20077;-68
2022/01/04 06:32:27;;;;;;;5.22;5.03;;;;;;;6.33;100.00;99334.03;4373910;32;20069;-68
2022/01/04 06:34:52;;;;;;;3.60;3.50;;;;;;;6.39;100.00;99333.72;4356934;32;20077;-68
2022/01/04 06:37:17;;;;;;;3.72;3.62;;;;;;;6.39;100.00;99341.53;4379659;32;20138;-70
2022/01/04 06:39:43;;;;;;;3.75;3.65;;;;;;;5.34;100.00;99174.66;4375910;32;20088;-68
2022/01/04 06:42:09;;;;;;;3.70;3.60;;;;;;;6.41;100.00;99333.62;4381728;32;22969;-69
2022/01/04 06:44:34;;;;;;;4.55;4.35;;;;;;;6.35;100.00;99332.22;4375399;32;20073;-67
2022/01/04 06:47:00;;;;;;;3.90;3.70;;;;;;;6.34;100.00;99322.72;4376478;32;20058;-68
2022/01/04 06:49:25;;;;;;;4.78;4.57;;;;;;;6.34;100.00;99317.50;4379019;32;20069;-68
2022/01/04 06:51:50;;;;;;;4.10;3.90;;;;;;;6.37;100.00;99316.47;4364836;32;20083;-68
2022/01/04 06:54:17;;;;;;;3.75;3.65;;;;;;;5.33;100.00;99138.31;4379155;32;20065;-71
2022/01/04 06:56:42;;;;;;;3.60;3.50;;;;;;;6.29;100.00;99295.22;4378788;32;20120;-70
2022/01/04 06:59:08;;;;;;;3.60;3.50;;;;;;;5.29;100.00;99134.19;4386548;32;20102;-69
2022/01/04 07:01:34;;;;;;;3.80;3.70;;;;;;;5.57;100.00;99164.72;4380251;32;20091;-69
2022/01/04 07:03:59;;;;;;;3.78;3.67;;;;;;;6.34;100.00;99290.63;4379314;32;20606;-68
2022/01/04 07:06:25;;;;;;;5.45;5.25;;;;;;;6.28;100.00;99294.41;4375436;32;20359;-67
2022/01/04 07:08:50;;;;;;;3.83;3.70;;;;;;;6.26;100.00;99298.03;4364851;32;20093;-68
2022/01/04 07:11:16;;;;;;;3.53;3.42;;;;;;;6.19;100.00;99292.31;4376798;32;20064;-69
2022/01/04 07:13:41;;;;;;;3.70;3.60;;;;;;;6.27;100.00;99305.72;4386710;32;22157;-68
2022/01/04 07:16:07;;;;;;;3.50;3.40;;;;;;;6.27;100.00;99305.72;4378656;32;20077;-69
2022/01/04 07:18:32;;;;;;;5.28;5.07;;;;;;;6.30;100.00;99315.16;4377811;32;20073;-68
2022/01/04 07:20:58;;;;;;;3.80;3.70;;;;;;;6.17;100.00;99289.81;4377864;32;20085;-68
2022/01/04 07:23:23;;;;;;;5.18;4.97;;;;;;;6.27;100.00;99297.09;4373266;32;20997;-68
2022/01/04 07:25:48;;;;;;;3.83;3.72;;;;;;;6.31;100.00;99304.62;4379809;32;20586;-68
2022/01/04 07:28:14;;;;;;;3.58;3.47;;;;;;;6.32;100.00;99295.91;4384813;32;20126;-68
2022/01/04 07:30:39;;;;;;;3.72;3.62;;;;;;;6.33;100.00;99294.97;4386563;32;20850;-68
2022/01/04 07:33:05;;;;;;;3.60;3.50;;;;;;;6.33;100.00;99292.34;4384253;32;20081;-69
2022/01/04 07:35:30;;;;;;;5.12;4.93;;;;;;;6.33;100.00;99288.91;4375662;32;20939;-69
2022/01/04 07:37:55;;;;;;;3.50;3.40;;;;;;;6.32;100.00;99301.13;4383198;32;20073;-69
2022/01/04 07:40:21;;;;;;;5.18;4.97;;;;;;;6.31;100.00;99295.97;4381997;32;20078;-68
2022/01/04 07:42:47;;;;;;;3.62;3.53;;;;;;;6.30;100.00;99295.16;4384853;32;20104;-69
2022/01/04 07:45:12;;;;;;;3.62;3.53;;;;;;;6.29;100.00;99292.63;4387399;32;20188;-68
2022/01/04 07:47:37;;;;;;;3.70;3.60;;;;;;;6.11;100.00;99263.25;4384935;32;20319;-68
2022/01/04 07:50:03;;;;;;;3.53;3.42;;;;;;;6.30;100.00;99289.94;4382928;32;20882;-68
2022/01/04 07:52:28;;;;;;;5.00;4.80;;;;;;;6.25;100.00;99272.88;4391276;32;20159;-68
2022/01/04 07:54:54;;;;;;;4.00;3.80;;;;;;;5.44;100.00;99141.16;4378181;32;20085;-70
2022/01/04 07:57:19;;;;;;;4.25;4.05;;;;;;;6.29;100.00;99277.81;4380160;32;20099;-70
2022/01/04 07:59:45;;;;;;;3.60;3.50;;;;;;;6.30;100.00;99269.09;4382742;32;20073;-69
2022/01/04 08:02:10;;;;;;;3.60;3.50;;;;;;;6.30;100.00;99274.31;4382836;32;20093;-69
2022/01/04 08:04:35;;;;;;;4.43;4.22;;;;;;;6.13;100.00;99261.41;4379948;32;20077;-68
2022/01/04 08:07:01;;;;;;;3.80;3.70;;;;;;;6.29;100.00;99267.41;4390625;32;20100;-68
2022/01/04 08:09:26;;;;;;;3.60;3.50;;;;;;;6.29;100.00;99264.81;4388155;32;20064;-68
2022/01/04 08:11:51;;;;;;;3.90;3.80;;;;;;;6.29;100.00;99267.41;4387801;32;20468;-68
2022/01/04 08:14:17;;;;;;;3.80;3.70;;;;;;;6.29;100.00;99262.19;4380934;32;20069;-68
2022/01/04 08:16:43;;;;;;;3.50;3.40;;;;;;;6.19;100.00;99245.41;4383417;32;20085;-68
2022/01/04 08:19:08;;;;;;;3.60;3.50;;;;;;;6.15;100.00;99239.56;4382720;32;20091;-68
2022/01/04 08:21:33;;;;;;;3.97;3.80;;;;;;;6.14;100.00;99231.84;4389441;32;20077;-68
2022/01/04 08:23:59;;;;;;;4.00;3.80;;;;;;;6.22;100.00;99260.88;4385701;32;20089;-68
2022/01/04 08:26:25;;;;;;;5.35;5.15;;;;;;;6.24;100.00;99279.03;4364364;32;20126;-69
2022/01/04 08:28:50;;;;;;;3.70;3.60;;;;;;;6.22;100.00;99275.69;4379400;32;20451;-69
2022/01/04 08:31:15;;;;;;;3.65;3.55;;;;;;;6.25;100.00;99280.69;4377913;32;20097;-69
2022/01/04 08:33:41;;;;;;;3.60;3.50;;;;;;;6.22;100.00;99276.53;4387451;32;20062;-68
2022/01/04 08:36:08;;;;;;;3.42;3.33;;;;;;;6.26;100.00;99282.41;4377768;32;20127;-69
2022/01/04 08:38:34;;;;;;;5.00;4.80;;;;;;;6.28;100.00;99278.78;4382188;32;22071;-69
2022/01/04 08:40:59;;;;;;;3.53;3.42;;;;;;;6.10;100.00;99256.38;4364057;32;20352;-68
2022/01/04 08:43:26;;;;;;;5.05;4.85;;;;;;;6.27;100.00;99258.84;4387954;32;20104;-67
2022/01/04 08:45:52;;;;;;;3.70;3.60;;;;;;;6.28;100.00;99254.50;4374836;32;20107;-69
2022/01/04 08:48:17;;;;;;;3.87;3.72;;;;;;;6.29;100.00;99251.78;4378211;32;20072;-69
2022/01/04 08:50:44;;;;;;;3.55;3.45;;;;;;;6.00;100.00;99201.37;4378412;32;20097;-69
2022/01/04 08:53:11;;;;;;;3.80;3.60;;;;;;;6.38;100.00;99247.81;4379228;32;20076;-69
2022/01/04 08:55:36;;;;;;;4.22;4.03;;;;;;;6.43;100.00;99250.16;4375993;32;20083;-72
2022/01/04 08:58:02;;;;;;;4.10;3.90;;;;;;;6.47;100.00;99259.47;4380007;32;20148;-70
2022/01/04 09:00:27;;;;;;;4.35;4.15;;;;;;;6.53;100.00;99265.12;4385563;32;20142;-72
2022/01/04 09:02:52;;;;;;;4.40;4.20;;;;;;;6.57;100.00;99268.41;4382684;32;20462;-70
2022/01/04 09:05:18;;;;;;;3.92;3.78;;;;;;;6.60;100.00;99278.69;4380790;32;20787;-71
2022/01/04 09:07:43;;;;;;;3.60;3.50;;;;;;;6.60;100.00;99278.69;4382647;32;20100;-71
2022/01/04 09:10:09;;;;;;;3.67;3.58;;;;;;;6.46;100.00;99300.31;4369293;32;20084;-67
2022/01/04 09:15:27;;;;;;;3.62;3.53;;;;;;;6.45;100.00;99309.06;4379376;32;20073;-66
2022/01/04 09:20:35;;;;;;;4.03;3.83;;;;;;;6.57;100.00;99279.69;4381944;32;20383;-68
2022/01/04 09:23:01;;;;;;;3.50;3.40;;;;;;;6.68;100.00;99262.59;4376877;32;20069;-67
2022/01/04 09:25:26;;;;;;;4.53;4.32;;;;;;;6.78;100.00;99280.19;4387926;32;20084;-66
2022/01/04 09:27:52;;;;;;;3.60;3.50;;;;;;;6.82;100.00;99280.84;4377404;32;20073;-70
2022/01/04 09:30:18;;;;;;;4.82;4.45;;;;;;;6.81;100.00;99279.16;4378702;32;20069;-73
2022/01/04 09:32:43;;;;;;;3.70;3.60;;;;;;;6.71;100.00;99259.78;4384846;32;20270;-72
2022/01/04 09:35:11;;;;;;;4.28;4.03;;;;;;;6.90;100.00;99277.78;4380390;32;20856;-71
2022/01/04 09:37:36;;;;;;;4.50;4.30;;;;;;;6.93;100.00;99259.34;4378130;32;20091;-72
2022/01/04 09:40:02;;;;;;;3.90;3.70;;;;;;;6.99;100.00;99264.19;4377197;32;20088;-70
2022/01/04 09:42:28;;;;;;;5.50;5.28;;;;;;;7.02;100.00;99276.22;4382167;32;20459;-72
2022/01/04 09:44:53;;;;;;;3.70;3.60;;;;;;;6.94;100.00;99264.47;4381903;32;20073;-72
2022/01/04 09:47:19;;;;;;;4.62;4.43;;;;;;;7.08;100.00;99281.91;4378302;32;20096;-69
2022/01/04 09:49:44;;;;;;;3.50;3.40;;;;;;;7.03;100.00;99276.09;4386168;32;20479;-70
2022/01/04 09:52:10;;;;;;;3.55;3.45;;;;;;;6.86;100.00;99247.63;4380902;32;20610;-74
2022/01/04 09:54:35;;;;;;;4.45;4.25;;;;;;;7.09;100.00;99280.94;4377139;32;20461;-71
2022/01/04 09:57:00;;;;;;;3.40;3.30;;;;;;;7.07;100.00;99277.59;4377895;32;20077;-72
2022/01/04 09:59:26;;;;;;;5.35;5.15;;;;;;;7.07;100.00;99268.94;4390818;32;20069;-70
2022/01/04 10:01:59;;;;;;;3.83;3.62;;;;;;;7.04;100.00;99285.63;4388043;32;20070;-72
2022/01/04 10:04:25;;;;;;;5.18;4.97;;;;;;;7.06;100.00;99288.16;4379811;32;20195;-71
2022/01/04 10:07:02;;;;;;;3.80;3.70;;;;;;;7.03;100.00;99268.28;4379885;32;20115;-71
2022/01/04 10:09:48;;;;;;;5.18;4.97;;;;;;;7.07;100.00;99272.38;4384739;32;20175;-70
2022/01/04 10:12:23;;;;;;;3.78;3.67;;;;;;;7.09;100.00;99272.28;4394437;32;20073;-75
2022/01/04 10:14:50;;;;;;;4.35;4.15;;;;;;;7.08;100.00;99273.25;4390980;32;20550;-71
2022/01/04 10:17:21;;;;;;;3.75;3.62;;;;;;;6.36;100.00;99174.94;4381545;32;20096;-74
2022/01/04 10:19:53;;;;;;;3.90;3.78;;;;;;;7.05;100.00;99279.47;4380633;32;20073;-70
2022/01/04 10:22:34;;;;;;;5.68;5.45;;;;;;;7.05;100.00;99284.69;4379597;32;20073;-70
2022/01/04 10:25:03;;;;;;;3.90;3.80;;;;;;;6.98;100.00;99286.81;4391111;32;20088;-70
2022/01/04 10:27:48;;;;;;;4.90;4.70;;;;;;;6.94;100.00;99287.13;4391625;32;20073;-71
2022/01/04 10:30:30;;;;;;;3.50;3.40;;;;;;;6.98;100.00;99270.34;4380323;32;20073;-70
2022/01/04 10:33:01;;;;;;;3.80;3.70;;;;;;;6.94;100.00;99280.12;4391419;32;20084;-70
2022/01/04 10:35:31;;;;;;;4.85;4.65;;;;;;;6.91;100.00;99279.47;4402087;32;20478;-69
2022/01/04 10:37:58;;;;;;;3.60;3.50;;;;;;;6.77;100.00;99252.44;4394823;32;20427;-73
2022/01/04 10:40:25;;;;;;;4.97;4.78;;;;;;;6.96;100.00;99274.81;4374797;32;20168;-69
2022/01/04 10:42:50;;;;;;;3.60;3.50;;;;;;;6.90;100.00;99267.38;4378158;32;20101;-71
2022/01/04 10:45:29;;;;;;;3.83;3.70;;;;;;;6.95;100.00;99283.56;4378030;32;20188;-70
2022/01/04 10:47:54;;;;;;;3.70;3.50;;;;;;;6.98;100.00;99272.97;4381365;32;20424;-68
2022/01/04 10:50:38;;;;;;;3.50;3.40;;;;;;;6.83;100.00;99260.81;4385495;32;20855;-70
2022/01/04 10:53:04;;;;;;;3.70;3.60;;;;;;;6.88;100.00;99272.66;4379780;32;20145;-69
2022/01/04 10:55:33;;;;;;;5.37;5.07;;;;;;;6.93;100.00;99268.00;4379655;32;20089;-69
2022/01/04 10:57:59;;;;;;;3.50;3.40;;;;;;;6.88;100.00;99256.19;4385214;32;20084;-70
2022/01/04 11:00:25;;;;;;;4.53;4.32;;;;;;;6.98;100.00;99254.69;4376634;32;20164;-70
2022/01/04 11:02:51;;;;;;;3.50;3.40;;;;;;;7.02;100.00;99266.63;4382369;32;20142;-69
2022/01/04 11:05:18;;;;;;;3.75;3.62;;;;;;;6.16;100.00;99144.84;4381603;32;20652;-71
2022/01/04 11:08:02;;;;;;;3.90;3.70;;;;;;;7.09;100.00;99252.25;4381775;32;20074;-70
2022/01/04 11:10:30;;;;;;;4.97;4.78;;;;;;;7.06;100.00;99231.59;4392974;32;20406;-70
2022/01/04 11:12:56;;;;;;;3.65;3.55;;;;;;;7.14;100.00;99244.16;4382827;32;20092;-69
2022/01/04 11:15:22;;;;;;;4.72;4.53;;;;;;;7.14;100.00;99246.78;4379443;32;20076;-69
2022/01/04 11:17:47;;;;;;;3.60;3.50;;;;;;;7.24;100.00;99257.50;4387368;32;20073;-69
2022/01/04 11:20:13;;;;;;;3.60;3.50;;;;;;;7.19;100.00;99260.38;4370379;32;20095;-71
2022/01/04 11:22:40;;;;;;;3.67;3.58;;;;;;;7.18;100.00;99264.75;4375456;32;20763;-72
2022/01/04 11:25:06;;;;;;;3.40;3.30;;;;;;;7.19;100.00;99271.63;4377744;32;20147;-72
2022/01/04 11:27:31;;;;;;;5.07;4.87;;;;;;;7.18;100.00;99267.34;4391114;32;20066;-69
2022/01/04 11:29:58;;;;;;;3.60;3.50;;;;;;;7.23;100.00;99259.25;4384856;32;20103;-70
2022/01/04 11:32:23;;;;;;;5.28;4.97;;;;;;;7.28;100.00;99266.81;4393093;32;20161;-69
2022/01/04 11:34:55;;;;;;;3.70;3.60;;;;;;;7.19;100.00;99253.37;4378904;32;20068;-68
2022/01/04 11:37:21;;;;;;;4.90;4.70;;;;;;;7.27;100.00;99254.69;4389407;32;20128;-69
2022/01/04 11:39:46;;;;;;;3.50;3.40;;;;;;;7.23;100.00;99250.59;4379292;32;20161;-72